Tiempo atmosférico en la estación meteorológica de Barcena de Cicero, Treto, Cantabria (10 m.)



Fecha
DESCASC
Temp. máxima en grados centígrados (hora)
DESCASC
Temp. mínima en grados centígrados (hora)
DESCASC
Temp. media en grados centígrados
DESCASC
Racha de viento máxima en m/sg (hora)
DESCASC
Velocidad máxima media en intervalos de 10 minutos(hora)
DESCASC
Precipitaciones diarias en mm
DESCASC
Precipitaciones de 00:00 a 06:00 en mm
DESCASC
Precipitaciones de 06:00 a 12:00 en mm
DESCASC
Precipitaciones de 12:00 a 18:00 en mm
DESCASC
Precipitaciones de 18:00 a 24:00 en mm
DESCASC
24-09-2020 21.8 (16:10) 13.4 (23:40) 17.6 16.39 (20:20) 8.06 (20:40) 9.6 2.8 0 0 6.8
23-09-2020 24.3 (13:00) 15.1 (00:00) 19.7 10.28 (13:20) 5.56 (13:20) 0.4 0 0 0 0.4
22-09-2020 22.8 (13:50) 13.6 (00:00) 18.2 5.83 (14:50) 3.33 (15:00) 0 0 0 0 0
21-09-2020 24.2 (15:30) 15.3 (00:00) 19.8 6.39 (16:20) 3.33 (17:00) 0 0 0 0 0
20-09-2020 24.3 (13:50) 14.3 (00:00) 19.3 7.22 (15:10) 4.44 (15:10) 0 0 0 0 0
19-09-2020 24.3 (11:50) 15.4 (00:00) 19.8 10 (14:50) 3.89 (14:30) 4.8 2 0 2.8 0
18-09-2020 28.4 (17:40) 19 (00:00) 23.7 13.89 (03:10) 5.56 (03:20) 1 0 0.6 0 0.4
17-09-2020 28 (13:40) 18.6 (00:00) 23.3 7.5 (15:30) 4.72 (15:30) 0.2 0 0.2 0 0
16-09-2020 24.7 (15:10) 15.8 (00:00) 20.3 5.83 (14:10) 3.33 (14:10) 0 0 0 0 0
15-09-2020 25.7 (15:40) 18.5 (00:00) 22.1 5.28 (12:50) 3.06 (12:50) 0 0 0 0 0
14-09-2020 28.8 (11:40) 18 (00:00) 23.4 8.33 (23:10) 4.44 (14:30) 0 0 0 0 0
13-09-2020 27 (18:30) 13.6 (00:00) 20.3 5 (15:20) 2.78 (15:20) 0 0 0 0 0
12-09-2020 24 (15:50) 14.2 (00:00) 19.1 8.89 (14:00) 5.56 (13:30) 0 0 0 0 0
11-09-2020 23.9 (17:30) 14.8 (00:00) 19.3 10 (16:30) 6.39 (13:40) 0 0 0 0 0
10-09-2020 24.6 (14:50) 13.6 (00:00) 19.1 6.11 (17:20) 3.61 (17:20) 0 0 0 0 0
09-09-2020 24.4 (16:50) 12.1 (00:00) 18.3 5.83 (04:30) 3.61 (14:00) 0 0 0 0 0
08-09-2020 22.3 (14:30) 12.9 (00:00) 17.6 9.17 (18:40) 6.11 (17:40) 0 0 0 0 0
07-09-2020 21.6 (14:40) 14.7 (23:59) 18.2 6.94 (15:10) 4.44 (15:10) 1.4 0.2 1.2 0 0
06-09-2020 21.9 (16:30) 16.8 (00:00) 19.3 6.39 (16:20) 3.61 (16:20) 0 0 0 0 0
05-09-2020 23.4 (15:20) 18.1 (00:00) 20.8 6.11 (17:20) 3.33 (18:00) 0.6 0 0 0 0.6
04-09-2020 26.3 (15:50) 13.1 (00:00) 19.7 4.72 (15:20) 2.78 (14:50) 0 0 0 0 0
03-09-2020 24 (16:10) 11 (00:00) 17.5 8.06 (13:50) 5 (13:10) 0 0 0 0 0
02-09-2020 23.3 (13:00) 14.7 (00:00) 19 8.33 (15:40) 5.28 (15:40) 0 0 0 0 0
01-09-2020 23.5 (16:50) 12.4 (00:00) 17.9 6.11 (17:10) 3.61 (17:10) 0 0 0 0 0
31-08-2020 22.2 (13:30) 10 (00:00) 16.1 8.89 (16:00) 5.83 (16:20) 0 0 0 0 0
30-08-2020 19.1 (13:40) 13 (00:00) 16.1 8.61 (13:50) 4.44 (14:00) 13.2 0.6 1 11.6 0
29-08-2020 19.9 (16:00) 14.5 (00:00) 17.2 10 (18:10) 4.44 (18:10) 36.6 8 5.8 14.6 8.2
28-08-2020 21.3 (00:00) 16.7 (00:00) 19 9.72 (05:30) 4.44 (16:50) 4.8 3 0.4 0.6 0.8
27-08-2020 27.4 (12:50) 17.6 (00:00) 22.5 10.28 (13:20) 6.11 (13:30) 1.6 0 0 0 1.6
26-08-2020 25.3 (12:50) 18.5 (00:00) 21.9 8.61 (15:50) 5.28 (17:00) 0 0 0 0 0

Gráficas

Temp. máximas Temp. mínimas Temp. medias Precipitaciones Rachas de viento máximas Velocidades máximas media en intervalos de 10 minutos

Datos horarios

Fecha y hora oficial Temperatura (ºC) Velocidad del viento (km/h) Dirección del viento Racha (km/h) Dirección de racha Precipitación (mm) Presión (hPa) Tendencia (hPa) Humedad (%)
2020-09-24 23:00:00 13.8 14 Oeste 49 Oeste 0.6 -- -- 88
2020-09-24 22:00:00 15.4 27 Oeste 58 Oeste 0.2 -- -- 84
2020-09-24 21:00:00 17.6 18 Oeste 59 Oeste 0 -- -- 72
2020-09-24 20:00:00 18.3 18 Oeste 45 Noroeste 0 -- -- 71
2020-09-24 19:00:00 18.9 8 Oeste 37 Oeste 0.2 -- -- 70
2020-09-24 18:00:00 19.3 14 Oeste 42 Noroeste 0 -- -- 70
2020-09-24 17:00:00 21.5 11 Oeste 27 Oeste 0 -- -- 57
2020-09-24 16:00:00 21.4 13 Oeste 26 Noroeste 0 -- -- 57
2020-09-24 15:00:00 21.6 11 Noroeste 25 Noroeste 0 -- -- 57
2020-09-24 14:00:00 20.8 13 Oeste 25 Oeste 0 -- -- 63
2020-09-24 13:00:00 20.4 11 Oeste 26 Oeste 0 -- -- 66
2020-09-24 12:00:00 19.4 8 Oeste 20 Oeste 0 -- -- 72
2020-09-24 11:00:00 18.3 4 Sur 15 Sur 0 -- -- 80
2020-09-24 10:00:00 17.3 4 Sur 15 Sur 0 -- -- 85
2020-09-24 09:00:00 16.8 5 Sur 13 Sudoeste 0 -- -- 88
2020-09-24 08:00:00 16.3 6 Sur 13 Sur 0 -- -- 93
2020-09-24 07:00:00 16.5 6 Sur 15 Sur 0 -- -- 93
2020-09-24 06:00:00 16.7 9 Oeste 24 Oeste 0.2 -- -- 95
2020-09-24 05:00:00 17 8 Oeste 21 Oeste 0.2 -- -- 96
2020-09-24 04:00:00 17.2 5 Sudoeste 13 Sudoeste 0.2 -- -- 96
2020-09-24 03:00:00 17.3 5 Sur 17 Sudoeste 0.4 -- -- 95
2020-09-24 02:00:00 17.5 5 Sur 14 Sur 0.4 -- -- 96
2020-09-24 01:00:00 17.5 3 Sudoeste 14 Sudeste 1.4 -- -- 96
2020-09-24 00:00:00 17.9 6 Sur 13 Sur 0.4 -- -- 94
2020-09-23 23:00:00 18.6 5 Sur 13 Sudoeste 0 -- -- 90
2020-09-23 22:00:00 19.1 5 Sudoeste 10 Sur 0 -- -- 87
2020-09-23 21:00:00 19.7 5 Sur 10 Sudoeste 0 -- -- 84
2020-09-23 20:00:00 20.1 4 Sudoeste 15 Oeste 0 -- -- 83
2020-09-23 19:00:00 20.7 9 Oeste 21 Oeste 0 -- -- 78
2020-09-23 18:00:00 21.1 9 Oeste 25 Noroeste 0 -- -- 78
2020-09-23 17:00:00 21.3 16 Noroeste 29 Noroeste 0 -- -- 77
2020-09-23 16:00:00 21.8 11 Noroeste 35 Oeste 0 -- -- 76
2020-09-23 15:00:00 22.4 17 Noroeste 33 Noroeste 0 -- -- 72
2020-09-23 14:00:00 23.8 14 Noroeste 37 Noroeste 0 -- -- 68
2020-09-23 13:00:00 24.3 14 Oeste 26 Noroeste 0 -- -- 61
2020-09-23 12:00:00 22.7 8 Norte 14 Noroeste 0 -- -- 72
2020-09-23 11:00:00 20.2 0 Calma 6 Noroeste 0 -- -- 88
2020-09-23 10:00:00 17.6 3 Sur 8 Sudoeste 0 -- -- 95
2020-09-23 09:00:00 16.4 5 Sudeste 11 Sudeste 0 -- -- 97
2020-09-23 08:00:00 15.7 6 Sur 17 Sudeste 0 -- -- 96
2020-09-23 07:00:00 15.8 8 Sur 15 Sur 0 -- -- 97
2020-09-23 06:00:00 15.4 8 Sudeste 16 Sudeste 0 -- -- 97
2020-09-23 05:00:00 15.3 9 Sur 16 Sur 0 -- -- 98
2020-09-23 04:00:00 15.2 5 Sur 13 Sur 0 -- -- 98
2020-09-23 03:00:00 15.7 4 Sur 9 Sur 0 -- -- 97
2020-09-23 02:00:00 16.5 3 Sur 8 Sur 0 -- -- 95
2020-09-23 01:00:00 17.4 2 Sur 7 Sur 0 -- -- 93
2020-09-23 00:00:00 18.2 5 Sudeste 8 Sur 0 -- -- 93
2020-09-22 23:00:00 18.4 0 Calma 6 Sur 0 -- -- 91
2020-09-22 22:00:00 19 2 Sudeste 5 Sudeste 0 -- -- 90
2020-09-22 21:00:00 19.4 0 Calma 4 Noroeste 0 -- -- 88
2020-09-22 20:00:00 20.3 3 Nordeste 10 Nordeste 0 -- -- 82
2020-09-22 19:00:00 21.1 6 Nordeste 13 Nordeste 0 -- -- 78
2020-09-22 18:00:00 22 6 Norte 12 Nordeste 0 -- -- 73
2020-09-22 17:00:00 21.5 6 Norte 13 Nordeste 0 -- -- 75
2020-09-22 16:00:00 21.7 6 Nordeste 16 Nordeste 0 -- -- 78
2020-09-22 15:00:00 21.2 12 Nordeste 21 Nordeste 0 -- -- 76
2020-09-22 14:00:00 22.8 9 Nordeste 17 Nordeste 0 -- -- 67
2020-09-22 13:00:00 22.6 7 Nordeste 12 Nordeste 0 -- -- 70
2020-09-22 12:00:00 22.1 3 Nordeste 11 Sudeste 0 -- -- 71
2020-09-22 11:00:00 18.9 6 Sudeste 14 Sudeste 0 -- -- 82
2020-09-22 10:00:00 16.2 12 Sudeste 18 Sudeste 0 -- -- 93
2020-09-22 09:00:00 13.9 6 Sudeste 13 Sur 0 -- -- 98
2020-09-22 08:00:00 14 6 Sur 20 Sudeste 0 -- -- 98
2020-09-22 07:00:00 13.9 6 Sur 17 Sudeste 0 -- -- 98
2020-09-22 06:00:00 14.1 8 Sur 16 Sudeste 0 -- -- 98
2020-09-22 05:00:00 14 6 Sur 12 Sur 0 -- -- 98
2020-09-22 04:00:00 14.7 7 Sur 14 Sur 0 -- -- 98
2020-09-22 03:00:00 14.9 7 Sur 10 Sur 0 -- -- 98
2020-09-22 02:00:00 15.3 4 Sur 10 Sudeste -- -- -- 97
2020-09-22 01:00:00 16 3 Sur 9 Sudeste 0 -- -- 96
2020-09-22 00:00:00 16.3 6 Sudeste 12 Sur 0 -- -- 95
2020-09-21 23:00:00 17.2 6 Sur 9 Sudeste 0 -- -- 93
2020-09-21 22:00:00 17.3 2 Sudeste 4 Sudeste 0 -- -- 92
2020-09-21 21:00:00 18.6 0 Calma 6 Oeste 0 -- -- 85
2020-09-21 20:00:00 20.6 5 Noroeste 14 Noroeste 0 -- -- 74
2020-09-21 19:00:00 22.3 6 Norte 15 Norte 0 -- -- 69
2020-09-21 18:00:00 22.4 8 Norte 21 Norte 0 -- -- 69
2020-09-21 17:00:00 23 12 Norte 23 Norte 0 -- -- 65
2020-09-21 16:00:00 24 9 Norte 19 Nordeste 0 -- -- 60
2020-09-21 15:00:00 23.5 6 Norte 17 Norte 0 -- -- 61
2020-09-21 14:00:00 22.8 10 Noroeste 17 Noroeste 0 -- -- 62
2020-09-21 13:00:00 22.2 9 Noroeste 20 Noroeste 0 -- -- 67
2020-09-21 12:00:00 21.5 5 Oeste 10 Sudeste 0 -- -- 73
2020-09-21 11:00:00 18.8 6 Sudeste 16 Sudeste 0 -- -- 84
2020-09-21 10:00:00 16.8 7 Sudeste 17 Sudeste 0 -- -- 91
2020-09-21 09:00:00 15.8 7 Sudeste 19 Sudeste 0 -- -- 95
2020-09-21 08:00:00 15.6 7 Sur 18 Sudeste 0 -- -- 95
2020-09-21 07:00:00 15.7 7 Sur 17 Sudeste 0 -- -- 96
2020-09-21 06:00:00 15.3 9 Sudeste 18 Sudeste 0 -- -- 97
2020-09-21 05:00:00 16 5 Sudeste 13 Sur 0 -- -- 95
2020-09-21 04:00:00 16.4 6 Sur 13 Sudeste 0 -- -- 96
2020-09-21 03:00:00 16.3 3 Sudeste 8 Sudeste 0 -- -- 96
2020-09-21 02:00:00 16.8 4 Sudeste 9 Sudeste 0 -- -- 96
2020-09-21 01:00:00 17.6 3 Sur 8 Sudoeste 0 -- -- 93
2020-09-21 00:00:00 17.9 4 Sudoeste 9 Sudoeste 0 -- -- 94
2020-09-20 23:00:00 18.5 4 Sudoeste 9 Sudoeste 0 -- -- 90
2020-09-20 22:00:00 18.5 3 Sudoeste 5 Sudoeste 0 -- -- 89
2020-09-20 21:00:00 19.4 3 Sudoeste 9 Oeste 0 -- -- 81
2020-09-20 20:00:00 20.6 5 Oeste 13 Noroeste 0 -- -- 76
2020-09-20 19:00:00 21.2 9 Noroeste 17 Noroeste 0 -- -- 73
2020-09-20 18:00:00 22.5 11 Noroeste 22 Oeste 0 -- -- 68
2020-09-20 17:00:00 23.2 11 Noroeste 22 Norte 0 -- -- 67
2020-09-20 16:00:00 23.3 12 Noroeste 26 Noroeste 0 -- -- 66
2020-09-20 15:00:00 23.4 12 Noroeste 23 Oeste 0 -- -- 66
2020-09-20 14:00:00 24 10 Noroeste 18 Noroeste 0 -- -- 60
2020-09-20 13:00:00 23.2 10 Noroeste 18 Noroeste 0 -- -- 62
2020-09-20 12:00:00 22.6 8 Noroeste 18 Oeste 0 -- -- 65
2020-09-20 11:00:00 19.9 7 Sudeste 14 Sudeste 0 -- -- 74
2020-09-20 10:00:00 16.1 12 Sudeste 21 Sudeste 0 -- -- 88
2020-09-20 09:00:00 14.9 10 Sudeste 19 Sudeste 0 -- -- 92
2020-09-20 08:00:00 14.3 9 Sudeste 21 Sudeste 0 -- -- 92
2020-09-20 07:00:00 14.5 8 Sudeste 19 Sur 0 -- -- 91
2020-09-20 06:00:00 15 7 Sudeste 18 Sudeste 0 -- -- 91
2020-09-20 05:00:00 15.4 7 Sudeste 14 Sudeste 0 -- -- 90
2020-09-20 04:00:00 16.2 7 Sudeste 12 Sudeste 0 -- -- 90
2020-09-20 03:00:00 16.7 4 Sur 12 Sudeste 0 -- -- 88
2020-09-20 02:00:00 17.9 5 Sur 18 Sur 0 -- -- 79
2020-09-20 01:00:00 19.3 6 Sudoeste 15 Sur 0 -- -- 74
2020-09-20 00:00:00 19.2 6 Sudoeste 17 Sudoeste 0 -- -- 70
2020-09-19 23:00:00 19.3 5 Sudoeste 18 Sudoeste 0 -- -- 68
2020-09-19 22:00:00 19.3 8 Sudoeste 15 Sudoeste 0 -- -- 75
2020-09-19 21:00:00 19.4 5 Sudoeste 10 Sudoeste 0 -- -- 83
2020-09-19 20:00:00 19.8 5 Sudoeste 12 Oeste 0 -- -- 83
2020-09-19 19:00:00 19.9 5 Oeste 8 Oeste 0 -- -- 88
2020-09-19 18:00:00 19.6 5 Oeste 17 Sudoeste 0.8 -- -- 88
2020-09-19 17:00:00 18.7 6 Sudoeste 26 Oeste 2 -- -- 85
2020-09-19 16:00:00 20.5 10 Sudoeste 29 Sur 0 -- -- 70
2020-09-19 15:00:00 20.6 7 Oeste 36 Oeste 0 -- -- 70
2020-09-19 14:00:00 22.5 14 Oeste 30 Oeste 0 -- -- 58
2020-09-19 13:00:00 23.4 5 Nordeste 10 Nordeste 0 -- -- 58
2020-09-19 12:00:00 24 5 Sudeste 10 Sudeste 0 -- -- 53
2020-09-19 11:00:00 21 4 Noroeste 8 Noroeste 0 -- -- 70
2020-09-19 10:00:00 18.1 0 Calma 5 Sur 0 -- -- 85
2020-09-19 09:00:00 17.2 4 Sur 12 Sudoeste 0 -- -- 81
2020-09-19 08:00:00 16.6 6 Sur 10 Sudoeste 0 -- -- 84
2020-09-19 07:00:00 17.4 3 Sur 18 Sudeste 0 -- -- 82
2020-09-19 06:00:00 18.2 7 Sur 15 Sudeste 0 -- -- 78
2020-09-19 05:00:00 15.5 4 Oeste 12 Noroeste 0 -- -- 96
2020-09-19 04:00:00 16 5 Noroeste 9 Noroeste 0 -- -- 95
2020-09-19 03:00:00 16.9 3 Oeste 12 Sudeste 0 -- -- 94
2020-09-19 02:00:00 18 6 Sudeste 18 Sur 0.2 -- -- 89
2020-09-19 01:00:00 18.2 6 Sur 17 Sudeste 1.8 -- -- 87
2020-09-19 00:00:00 19 10 Sudeste 27 Sudoeste 0.4 -- -- 80
2020-09-18 23:00:00 19.3 3 Sudoeste 11 Sur 0 -- -- 79
2020-09-18 22:00:00 19.4 4 Sur 12 Sudeste 0 -- -- 78
2020-09-18 21:00:00 21.3 3 Sur 11 Noroeste 0 -- -- 71
2020-09-18 20:00:00 23.1 7 Noroeste 15 Norte 0 -- -- 60
2020-09-18 19:00:00 25.1 9 Nordeste 26 Este 0 -- -- 54
2020-09-18 18:00:00 27.4 9 Norte 21 Nordeste 0 -- -- 44
2020-09-18 17:00:00 27.6 10 Noroeste 31 Sudeste 0 -- -- 41
2020-09-18 16:00:00 26.2 12 Sudeste 23 Sudeste 0 -- -- 47
2020-09-18 15:00:00 25.5 3 Nordeste 13 Este 0 -- -- 47
2020-09-18 14:00:00 23.6 3 Este 24 Sudeste 0 -- -- 60
2020-09-18 13:00:00 22.9 7 Este 24 Sudeste 0 -- -- 62
2020-09-18 12:00:00 23.7 7 Sudeste 21 Sur 0 -- -- 64
2020-09-18 11:00:00 22.6 10 Sudeste 21 Sudeste 0 -- -- 73
2020-09-18 10:00:00 21.3 5 Este 21 Sur 0 -- -- 77
2020-09-18 09:00:00 21 9 Sur 21 Este 0 -- -- 76
2020-09-18 08:00:00 20 5 Sudeste 17 Sur 0.6 -- -- 89
2020-09-18 07:00:00 20.3 2 Este 16 Oeste 0 -- -- 86
2020-09-18 06:00:00 21.7 4 Noroeste 19 Noroeste 0 -- -- 76
2020-09-18 05:00:00 23.2 3 Este 15 Este 0 -- -- 63
2020-09-18 04:00:00 23.7 9 Sudeste 50 Sur 0 -- -- 65
2020-09-18 03:00:00 21.9 6 Sur 17 Sudeste 0 -- -- 82
2020-09-18 02:00:00 21.3 6 Sudeste 13 Sudeste 0 -- -- 88
2020-09-18 01:00:00 21.1 5 Sudeste 11 Sudeste 0 -- -- 91
2020-09-18 00:00:00 21.8 2 Sudoeste 12 Este 0 -- -- 86
2020-09-17 23:00:00 21.4 3 Sudeste 14 Sudeste 0 -- -- 94
2020-09-17 22:00:00 22 9 Sudeste 17 Sudeste 0 -- -- 92
2020-09-17 21:00:00 22.7 3 Sur 12 Sudeste 0 -- -- 91
2020-09-17 20:00:00 23.8 4 Sur 10 Sudeste 0 -- -- 83
2020-09-17 19:00:00 24.7 3 Sudeste 9 Norte 0 -- -- 77
2020-09-17 18:00:00 25.1 3 Norte 14 Nordeste 0 -- -- 73
2020-09-17 17:00:00 25 9 Nordeste 23 Nordeste 0 -- -- 79
2020-09-17 16:00:00 25.6 14 Nordeste 27 Nordeste 0 -- -- 76
2020-09-17 15:00:00 26.8 10 Nordeste 21 Nordeste 0 -- -- 68
2020-09-17 14:00:00 27.2 8 Norte 16 Nordeste 0 -- -- 71
2020-09-17 13:00:00 26.3 6 Nordeste 14 Nordeste 0 -- -- 73
2020-09-17 12:00:00 24.3 2 Sudeste 8 Sur 0 -- -- 80
2020-09-17 11:00:00 21.5 3 Este 10 Sur 0 -- -- 92
2020-09-17 10:00:00 20.1 4 Sur 16 Sur 0.2 -- -- 94
2020-09-17 09:00:00 19.5 7 Sur 13 Sur 0 -- -- 97
2020-09-17 08:00:00 19.1 3 Sudeste 10 Sudeste 0 -- -- 97
2020-09-17 07:00:00 19.1 3 Sur 10 Sudeste 0 -- -- 97
2020-09-17 06:00:00 18.8 4 Sudoeste 11 Sur 0 -- -- 98
2020-09-17 05:00:00 18.9 6 Sur 11 Sur 0 -- -- 97
2020-09-17 04:00:00 18.7 5 Sudeste 14 Sudeste 0 -- -- 98
2020-09-17 03:00:00 18.7 0 Calma 6 Sudeste 0 -- -- 98
2020-09-17 02:00:00 19 2 Oeste 4 Este 0 -- -- 97
2020-09-17 01:00:00 19.3 0 Calma 6 Sudoeste 0 -- -- 97
2020-09-17 00:00:00 20.1 4 Sur 8 Sur 0 -- -- 97
2020-09-16 23:00:00 20.4 2 Sudeste 6 Sudeste 0 -- -- 97
2020-09-16 22:00:00 21 0 Calma 6 Noroeste 0 -- -- 95
2020-09-16 21:00:00 22 2 Norte 8 Nordeste 0 -- -- 93
2020-09-16 20:00:00 22.8 2 Norte 8 Norte 0 -- -- 90
2020-09-16 19:00:00 23.8 4 Norte 10 Nordeste 0 -- -- 86
2020-09-16 18:00:00 24.2 6 Norte 14 Norte 0 -- -- 84
2020-09-16 17:00:00 24.2 7 Nordeste 16 Norte 0 -- -- 85
2020-09-16 16:00:00 24.4 7 Norte 16 Norte 0 -- -- 81
2020-09-16 15:00:00 24.6 7 Norte 21 Nordeste 0 -- -- 83
2020-09-16 14:00:00 24.1 11 Nordeste 19 Nordeste 0 -- -- 83
2020-09-16 13:00:00 24.3 8 Nordeste 13 Nordeste 0 -- -- 75
2020-09-16 12:00:00 23.4 5 Nordeste 10 Nordeste 0 -- -- 74
2020-09-16 11:00:00 21.4 2 Sudeste 8 Sudeste 0 -- -- 85
2020-09-16 10:00:00 18.4 4 Sudeste 11 Sudeste 0 -- -- 98
2020-09-16 09:00:00 16.3 4 Sur 9 Sur 0 -- -- 100
2020-09-16 08:00:00 15.8 5 Sudeste 8 Sur 0 -- -- 99
2020-09-16 07:00:00 16.2 5 Sur 8 Sudeste 0 -- -- 99
2020-09-16 06:00:00 16.5 4 Sudeste 10 Sur 0 -- -- 98
2020-09-16 05:00:00 16.8 2 Sur 10 Sur 0 -- -- 98
2020-09-16 04:00:00 17 4 Sur 9 Sur 0 -- -- 98
2020-09-16 03:00:00 16.8 3 Sudeste 6 Sudeste 0 -- -- 97
2020-09-16 02:00:00 17.6 3 Sur 8 Sur 0 -- -- 97
2020-09-16 01:00:00 18.1 3 Sudeste 7 Sur 0 -- -- 96
2020-09-16 00:00:00 18.8 3 Sur 8 Sur 0 -- -- 95
2020-09-15 23:00:00 19.1 4 Sur 7 Sur 0 -- -- 96
2020-09-15 22:00:00 19.8 2 Sur 6 Noroeste 0 -- -- 93
2020-09-15 21:00:00 21.2 3 Noroeste 6 Norte 0 -- -- 86
2020-09-15 20:00:00 23 3 Noroeste 8 Norte 0 -- -- 77
2020-09-15 19:00:00 24.3 5 Norte 10 Nordeste 0 -- -- 69
2020-09-15 18:00:00 25 5 Norte 14 Nordeste 0 -- -- 67
2020-09-15 17:00:00 25.4 7 Nordeste 14 Nordeste 0 -- -- 60
2020-09-15 16:00:00 25.6 9 Nordeste 15 Nordeste 0 -- -- 65
2020-09-15 15:00:00 25.4 9 Nordeste 17 Nordeste 0 -- -- 63
2020-09-15 14:00:00 25.3 8 Nordeste 17 Norte 0 -- -- 62
2020-09-15 13:00:00 24.8 10 Norte 19 Norte 0 -- -- 66
2020-09-15 12:00:00 24.8 9 Nordeste 15 Nordeste 0 -- -- 66
2020-09-15 11:00:00 24.5 6 Noroeste 13 Noroeste 0 -- -- 62
2020-09-15 10:00:00 22.2 3 Norte 11 Oeste 0 -- -- 72
2020-09-15 09:00:00 19 3 Sur 14 Este 0 -- -- 91
2020-09-15 08:00:00 18.9 4 Sur 14 Este 0 -- -- 87
2020-09-15 07:00:00 19.5 5 Sudeste 13 Sudeste 0 -- -- 83
2020-09-15 06:00:00 19.9 4 Oeste 17 Sudeste 0 -- -- 80
2020-09-15 05:00:00 20.1 7 Sudeste 13 Sudeste 0 -- -- 80
2020-09-15 04:00:00 20.4 6 Sur 17 Sudeste 0 -- -- 79
2020-09-15 03:00:00 20.7 8 Sudeste 15 Sur 0 -- -- 77
2020-09-15 02:00:00 21 3 Sudeste 16 Sudoeste 0 -- -- 77
2020-09-15 01:00:00 21 5 Sur 18 Oeste 0 -- -- 77
2020-09-15 00:00:00 21.6 10 Oeste 30 Oeste 0 -- -- 74
2020-09-14 23:00:00 20.5 5 Oeste 14 Oeste 0 -- -- 79
2020-09-14 22:00:00 20 3 Oeste 6 Noroeste 0 -- -- 79
2020-09-14 21:00:00 21.9 3 Noroeste 8 Noroeste 0 -- -- 69
2020-09-14 20:00:00 23.3 3 Noroeste 9 Norte 0 -- -- 64
2020-09-14 19:00:00 24.5 6 Nordeste 14 Noroeste 0 -- -- 58
2020-09-14 18:00:00 24.6 7 Oeste 14 Noroeste 0 -- -- 54
2020-09-14 17:00:00 25.9 8 Noroeste 24 Sudoeste 0 -- -- 46
2020-09-14 16:00:00 26.8 11 Noroeste 23 Oeste 0 -- -- 46
2020-09-14 15:00:00 27.4 11 Noroeste 26 Oeste 0 -- -- 48
2020-09-14 14:00:00 27.5 12 Noroeste 20 Norte 0 -- -- 47
2020-09-14 13:00:00 26.3 8 Norte 14 Norte 0 -- -- 55
2020-09-14 12:00:00 28.3 8 Norte 14 Noroeste 0 -- -- 52
2020-09-14 11:00:00 28.5 8 Noroeste 13 Noroeste 0 -- -- 44
2020-09-14 10:00:00 25.5 3 Sur 9 Sur 0 -- -- 75
2020-09-14 09:00:00 21 4 Sur 8 Sur 0 -- -- 76
2020-09-14 08:00:00 18.7 2 Noroeste 10 Oeste 0 -- -- 77
2020-09-14 07:00:00 18.5 5 Noroeste 10 Sur 0 -- -- 80
2020-09-14 06:00:00 18.4 3 Sudoeste 9 Noroeste 0 -- -- 82
2020-09-14 05:00:00 19.7 5 Noroeste 10 Noroeste 0 -- -- 77
2020-09-14 04:00:00 21.7 5 Sur 17 Sudeste 0 -- -- 69
2020-09-14 03:00:00 19.7 4 Sur 12 Sudeste 0 -- -- 83
2020-09-14 02:00:00 18.8 4 Sudoeste 10 Sur 0 -- -- 91
2020-09-14 01:00:00 18.4 4 Sur 13 Sur 0 -- -- 95
2020-09-14 00:00:00 18.6 2 Sudoeste 5 Noroeste 0 -- -- 95
2020-09-13 23:00:00 19.3 0 Calma 4 Sudeste 0 -- -- 93
2020-09-13 22:00:00 20.1 0 Calma 4 Noroeste 0 -- -- 90
2020-09-13 21:00:00 21.6 0 Calma 5 Oeste 0 -- -- 84
2020-09-13 20:00:00 25 3 Noroeste 7 Norte 0 -- -- 70
2020-09-13 19:00:00 26.7 5 Norte 12 Norte 0 -- -- 62
2020-09-13 18:00:00 26.7 6 Norte 16 Nordeste 0 -- -- 62
2020-09-13 17:00:00 26.4 6 Norte 17 Norte 0 -- -- 67
2020-09-13 16:00:00 25.6 8 Norte 18 Nordeste 0 -- -- 71
2020-09-13 15:00:00 25.4 7 Norte 14 Nordeste 0 -- -- 76
2020-09-13 14:00:00 24.9 7 Norte 13 Nordeste 0 -- -- 77
2020-09-13 13:00:00 24.6 6 Nordeste 13 Norte 0 -- -- 73
2020-09-13 12:00:00 22.9 5 Norte 10 Nordeste 0 -- -- 72
2020-09-13 11:00:00 20.1 4 Sudeste 13 Sudeste 0 -- -- 80
2020-09-13 10:00:00 16.7 6 Sur 13 Sur 0 -- -- 92
2020-09-13 09:00:00 14.3 5 Sudeste 13 Sur 0 -- -- 98
2020-09-13 08:00:00 13.6 5 Sur 12 Sur 0 -- -- 99
2020-09-13 07:00:00 14 5 Sur 12 Sur 0 -- -- 98
2020-09-13 06:00:00 14.2 5 Sudeste 8 Sudeste 0 -- -- 96
2020-09-13 05:00:00 14.9 0 Calma 11 Sudeste 0 -- -- 96
2020-09-13 04:00:00 15.5 6 Sudeste 14 Sudeste 0 -- -- 97
2020-09-13 03:00:00 16 4 Sur 16 Sudeste 0 -- -- 97
2020-09-13 02:00:00 15.6 3 Sur 9 Sur 0 -- -- 96
2020-09-13 01:00:00 16.3 5 Sudeste 10 Sudeste 0 -- -- 96
2020-09-13 00:00:00 16.7 5 Sur 8 Sur 0 -- -- 95
2020-09-12 23:00:00 17.3 2 Sur 5 Sur 0 -- -- 92
2020-09-12 22:00:00 18.7 2 Sur 8 Sudeste 0 -- -- 89
2020-09-12 21:00:00 20.6 3 Norte 14 Nordeste 0 -- -- 83
2020-09-12 20:00:00 22.5 7 Nordeste 24 Nordeste 0 -- -- 74
2020-09-12 19:00:00 23.2 16 Nordeste 26 Nordeste 0 -- -- 73
2020-09-12 18:00:00 23.4 18 Nordeste 32 Nordeste 0 -- -- 74
2020-09-12 17:00:00 23.8 17 Nordeste 29 Nordeste 0 -- -- 71
2020-09-12 16:00:00 23.8 17 Nordeste 30 Nordeste 0 -- -- 72
2020-09-12 15:00:00 23.9 14 Nordeste 31 Nordeste 0 -- -- 79
2020-09-12 14:00:00 23.3 19 Nordeste 32 Nordeste 0 -- -- 81
2020-09-12 13:00:00 23.6 15 Nordeste 24 Nordeste 0 -- -- 77
2020-09-12 12:00:00 23.3 12 Nordeste 20 Nordeste 0 -- -- 78
2020-09-12 11:00:00 20.9 0 Calma 7 Sur 0 -- -- 88
2020-09-12 10:00:00 17.3 4 Sudeste 11 Sudeste 0 -- -- 99
2020-09-12 09:00:00 14.5 5 Sudeste 10 Sudeste 0 -- -- 99
2020-09-12 08:00:00 14.4 2 Noroeste 12 Sur 0 -- -- 99
2020-09-12 07:00:00 14.8 6 Sur 13 Sur 0 -- -- 97
2020-09-12 06:00:00 15.1 5 Sur 9 Sur 0 -- -- 98
2020-09-12 05:00:00 15.8 3 Sur 11 Sur 0 -- -- 98
2020-09-12 04:00:00 15.9 7 Sur 10 Sur 0 -- -- 98
2020-09-12 03:00:00 16.1 4 Sudeste 8 Sur 0 -- -- 97
2020-09-12 02:00:00 16.6 5 Sur 8 Sur 0 -- -- 98
2020-09-12 01:00:00 16.7 4 Sur 9 Sur 0 -- -- 96
2020-09-12 00:00:00 17.3 0 Calma 7 Sudeste 0 -- -- 94
2020-09-11 23:00:00 19 0 Calma 4 Sudoeste 0 -- -- 90
2020-09-11 22:00:00 20 0 Calma 18 Nordeste 0 -- -- 83
2020-09-11 21:00:00 21.8 14 Nordeste 22 Nordeste 0 -- -- 83
2020-09-11 20:00:00 22.4 13 Nordeste 22 Nordeste 0 -- -- 76
2020-09-11 19:00:00 23.2 15 Nordeste 23 Nordeste 0 -- -- 78
2020-09-11 18:00:00 23.8 14 Nordeste 27 Nordeste 0 -- -- 78
2020-09-11 17:00:00 23.6 16 Nordeste 36 Nordeste 0 -- -- 81
2020-09-11 16:00:00 23.6 20 Nordeste 33 Nordeste 0 -- -- 80
2020-09-11 15:00:00 23.5 18 Nordeste 33 Nordeste 0 -- -- 81
2020-09-11 14:00:00 23.2 22 Nordeste 34 Nordeste 0 -- -- 81
2020-09-11 13:00:00 23.4 15 Nordeste 27 Nordeste 0 -- -- 76
2020-09-11 12:00:00 23 12 Nordeste 22 Nordeste 0 -- -- 77
2020-09-11 11:00:00 20.8 5 Sudeste 14 Sudeste 0 -- -- 81
2020-09-11 10:00:00 17.4 7 Sudeste 14 Sudeste 0 -- -- 95
2020-09-11 09:00:00 15.4 8 Sur 16 Sudeste 0 -- -- 98
2020-09-11 08:00:00 14.9 6 Sur 16 Sudeste 0 -- -- 98
2020-09-11 07:00:00 15.2 6 Sudeste 14 Sur 0 -- -- 97
2020-09-11 06:00:00 15.4 8 Sur 15 Sudeste 0 -- -- 98
2020-09-11 05:00:00 15.9 8 Sur 15 Sur 0 -- -- 97
2020-09-11 04:00:00 16.6 7 Sur 14 Sudeste 0 -- -- 97
2020-09-11 03:00:00 17 6 Sur 15 Sudeste 0 -- -- 97
2020-09-11 02:00:00 17.6 7 Sudeste 13 Sudeste 0 -- -- 98
2020-09-11 01:00:00 17.2 4 Sur 8 Sur 0 -- -- 97
2020-09-11 00:00:00 17.5 3 Sur 7 Sudeste 0 -- -- 98
2020-09-10 23:00:00 17.5 0 Calma 3 Oeste 0 -- -- 96
2020-09-10 22:00:00 18.5 0 Calma 3 Oeste 0 -- -- 93
2020-09-10 21:00:00 20.3 2 Oeste 7 Noroeste 0 -- -- 89
2020-09-10 20:00:00 21.9 4 Norte 14 Norte 0 -- -- 85
2020-09-10 19:00:00 23 6 Norte 18 Norte 0 -- -- 80
2020-09-10 18:00:00 23.5 11 Norte 22 Norte 0 -- -- 79
2020-09-10 17:00:00 24.3 9 Norte 19 Norte 0 -- -- 73
2020-09-10 16:00:00 24.2 11 Norte 18 Norte 0 -- -- 69
2020-09-10 15:00:00 24.5 9 Norte 17 Norte 0 -- -- 69
2020-09-10 14:00:00 23.9 9 Nordeste 18 Nordeste 0 -- -- 72
2020-09-10 13:00:00 23.4 10 Norte 17 Nordeste 0 -- -- 77
2020-09-10 12:00:00 22.6 5 Nordeste 10 Sudeste 0 -- -- 75
2020-09-10 11:00:00 20.2 6 Sudeste 16 Sudeste 0 -- -- 76
2020-09-10 10:00:00 17.2 10 Sudeste 18 Sudeste 0 -- -- 87
2020-09-10 09:00:00 14.3 8 Sudeste 15 Sudeste 0 -- -- 97
2020-09-10 08:00:00 13.8 8 Sur 15 Sudeste 0 -- -- 97
2020-09-10 07:00:00 14.1 6 Sur 19 Sudeste 0 -- -- 97
2020-09-10 06:00:00 14.6 10 Sur 17 Sur 0 -- -- 97
2020-09-10 05:00:00 14.7 7 Sur 15 Sudeste 0 -- -- 97
2020-09-10 04:00:00 15 4 Sudeste 16 Sudeste 0 -- -- 96
2020-09-10 03:00:00 15.7 7 Sudeste 14 Sudeste 0 -- -- 97
2020-09-10 02:00:00 16.1 7 Sur 14 Sudeste 0 -- -- 96
2020-09-10 01:00:00 16.4 6 Sur 12 Sur 0 -- -- 96
2020-09-10 00:00:00 15.9 4 Sudeste 9 Sur 0 -- -- 94
2020-09-09 23:00:00 16.8 0 Calma 8 Sudeste 0 -- -- 89
2020-09-09 22:00:00 17.3 4 Sudeste 8 Sudeste 0 -- -- 85
2020-09-09 21:00:00 19.2 3 Noroeste 8 Noroeste 0 -- -- 71
2020-09-09 20:00:00 22.4 0 Calma 8 Nordeste 0 -- -- 67
2020-09-09 19:00:00 24.3 4 Norte 14 Norte 0 -- -- 48
2020-09-09 18:00:00 24 9 Norte 17 Nordeste 0 -- -- 67
2020-09-09 17:00:00 24.2 9 Norte 18 Norte 0 -- -- 70
2020-09-09 16:00:00 23.7 8 Norte 18 Noroeste 0 -- -- 72
2020-09-09 15:00:00 23.3 9 Nordeste 18 Nordeste 0 -- -- 72
2020-09-09 14:00:00 22.9 13 Nordeste 18 Nordeste 0 -- -- 69
2020-09-09 13:00:00 23 6 Norte 12 Norte 0 -- -- 65
2020-09-09 12:00:00 21.7 8 Nordeste 10 Nordeste 0 -- -- 67
2020-09-09 11:00:00 19.9 3 Sudeste 14 Sudeste 0 -- -- 72
2020-09-09 10:00:00 16.6 6 Sudeste 10 Sudeste 0 -- -- 86
2020-09-09 09:00:00 13.4 7 Sur 17 Sudeste 0 -- -- 94
2020-09-09 08:00:00 12.1 4 Sur 15 Sudoeste 0 -- -- 96
2020-09-09 07:00:00 12.7 9 Sur 15 Sudeste 0 -- -- 94
2020-09-09 06:00:00 12.8 7 Sur 17 Sudeste 0 -- -- 94
2020-09-09 05:00:00 13.3 9 Sur 21 Sudeste 0 -- -- 95
2020-09-09 04:00:00 12.9 7 Sur 16 Sur 0 -- -- 95
2020-09-09 03:00:00 13.5 9 Sur 15 Sur 0 -- -- 93
2020-09-09 02:00:00 14.2 9 Sur 16 Sur 0 -- -- 91
2020-09-09 01:00:00 14.5 6 Sudeste 12 Sur 0 -- -- 91
2020-09-09 00:00:00 15.3 6 Sudeste 12 Sudeste 0 -- -- 89
2020-09-08 23:00:00 16.6 5 Sur 9 Sudeste 0 -- -- 84
2020-09-08 22:00:00 17.9 2 Sudeste 5 Sudeste 0 -- -- 77
2020-09-08 21:00:00 19.5 3 Sudeste 14 Nordeste 0 -- -- 71
2020-09-08 20:00:00 21 8 Este 27 Nordeste 0 -- -- 68
2020-09-08 19:00:00 21.8 19 Nordeste 33 Nordeste 0 -- -- 64
2020-09-08 18:00:00 21.9 21 Nordeste 32 Nordeste 0 -- -- 68
2020-09-08 17:00:00 22.2 19 Nordeste 32 Nordeste 0 -- -- 69
2020-09-08 16:00:00 22.3 17 Nordeste 28 Nordeste 0 -- -- 66
2020-09-08 15:00:00 22.1 14 Nordeste 30 Nordeste 0 -- -- 69
2020-09-08 14:00:00 21.9 15 Nordeste 27 Nordeste 0 -- -- 68
2020-09-08 13:00:00 21.9 13 Nordeste 24 Nordeste 0 -- -- 68
2020-09-08 12:00:00 21.5 11 Nordeste 18 Nordeste 0 -- -- 71
2020-09-08 11:00:00 19.6 4 Sudeste 12 Sudeste 0 -- -- 75
2020-09-08 10:00:00 16.8 8 Sudeste 18 Sudeste 0 -- -- 85
2020-09-08 09:00:00 14.5 8 Sur 17 Sudeste 0 -- -- 92
2020-09-08 08:00:00 13.6 8 Sudeste 19 Sur 0 -- -- 93
2020-09-08 07:00:00 13.7 8 Sur 19 Sur 0 -- -- 94
2020-09-08 06:00:00 13.2 7 Sur 15 Sur 0 -- -- 94
2020-09-08 05:00:00 13.2 7 Sur 15 Sur 0 -- -- 94
2020-09-08 04:00:00 12.9 5 Sur 13 Sur 0 -- -- 95
2020-09-08 03:00:00 13.2 5 Sur 14 Sudeste 0 -- -- 94
2020-09-08 02:00:00 13.5 7 Sudeste 17 Sudeste 0 -- -- 92
2020-09-08 01:00:00 14 6 Sudeste 17 Este 0 -- -- 91
2020-09-08 00:00:00 14.7 10 Sudeste 17 Sudeste 0 -- -- 89
2020-09-07 23:00:00 15.2 6 Sudeste 13 Sur 0 -- -- 89
2020-09-07 22:00:00 15.8 5 Sur 10 Sur 0 -- -- 87
2020-09-07 21:00:00 17.6 2 Sudoeste 10 Nordeste 0 -- -- 77
2020-09-07 20:00:00 19.7 6 Nordeste 15 Nordeste 0 -- -- 68
2020-09-07 19:00:00 20.8 6 Nordeste 20 Nordeste 0 -- -- 64
2020-09-07 18:00:00 21.2 12 Nordeste 22 Nordeste 0 -- -- 62
2020-09-07 17:00:00 21.2 13 Nordeste 25 Nordeste 0 -- -- 62
2020-09-07 16:00:00 21.5 10 Nordeste 25 Nordeste 0 -- -- 60
2020-09-07 15:00:00 21.6 14 Nordeste 24 Nordeste 0 -- -- 60
2020-09-07 14:00:00 21.1 9 Norte 16 Nordeste 0 -- -- 69
2020-09-07 13:00:00 20.9 5 Este 9 Nordeste 0 -- -- 71
2020-09-07 12:00:00 19.2 0 Calma 9 Oeste 0 -- -- 83
2020-09-07 11:00:00 17.3 7 Sudeste 14 Sudeste 0 -- -- 91
2020-09-07 10:00:00 16.5 5 Sudeste 13 Sudeste 0 -- -- 94
2020-09-07 09:00:00 15.8 6 Sudeste 15 Sudeste 0 -- -- 96
2020-09-07 08:00:00 15.3 7 Sudeste 15 Sudeste 0 -- -- 95
2020-09-07 07:00:00 15.4 7 Sur 10 Sur 1.2 -- -- 96
2020-09-07 06:00:00 15.4 5 Sur 10 Sudeste 0 -- -- 94
2020-09-07 05:00:00 15.3 7 Sur 10 Sur 0 -- -- 95
2020-09-07 04:00:00 15.7 7 Sudeste 13 Sudeste 0 -- -- 95
2020-09-07 03:00:00 16.1 5 Sur 12 Sur 0 -- -- 93
2020-09-07 02:00:00 17.1 3 Sur 10 Sur 0.2 -- -- 87
2020-09-07 01:00:00 18.3 5 Este 14 Nordeste 0 -- -- 78
2020-09-07 00:00:00 18.8 6 Norte 15 Norte 0 -- -- 72
2020-09-06 23:00:00 18.7 8 Norte 22 Nordeste 0 -- -- 74
2020-09-06 22:00:00 18.6 2 Nordeste 12 Noroeste 0 -- -- 83
2020-09-06 21:00:00 19.3 5 Norte 12 Norte 0 -- -- 70
2020-09-06 20:00:00 18.7 4 Noroeste 10 Norte 0 -- -- 79
2020-09-06 19:00:00 18.2 6 Oeste 20 Oeste 0 -- -- 85
2020-09-06 18:00:00 19.8 9 Noroeste 22 Noroeste 0 -- -- 73
2020-09-06 17:00:00 21.2 12 Noroeste 23 Oeste 0 -- -- 65
2020-09-06 16:00:00 21 11 Noroeste 20 Noroeste 0 -- -- 65
2020-09-06 15:00:00 21.1 6 Sudoeste 18 Oeste 0 -- -- 63
2020-09-06 14:00:00 20.5 8 Noroeste 15 Oeste 0 -- -- 66
2020-09-06 13:00:00 20 8 Oeste 14 Oeste 0 -- -- 71
2020-09-06 12:00:00 19.6 4 Oeste 11 Oeste 0 -- -- 73
2020-09-06 11:00:00 18.2 5 Sur 13 Sur 0 -- -- 83
2020-09-06 10:00:00 17.7 2 Sudoeste 8 Oeste 0 -- -- 85
2020-09-06 09:00:00 16.9 0 Calma 8 Sudeste 0 -- -- 91
2020-09-06 08:00:00 16.8 3 Sur 7 Sur 0 -- -- 92
2020-09-06 07:00:00 17.2 5 Sur 12 Sur 0 -- -- 88
2020-09-06 06:00:00 17.9 4 Sudoeste 14 Nordeste 0 -- -- 84
2020-09-06 05:00:00 17.7 5 Norte 13 Nordeste 0 -- -- 86
2020-09-06 04:00:00 17.6 0 Calma 6 Sudeste 0 -- -- 95
2020-09-06 03:00:00 17.8 2 Sur 6 Sudoeste 0 -- -- 95
2020-09-06 02:00:00 17.9 2 Sur 8 Sudoeste 0 -- -- 94
2020-09-06 01:00:00 17.9 2 Sudoeste 10 Sur 0 -- -- 94
2020-09-06 00:00:00 18.2 4 Sur 9 Sudoeste 0.4 -- -- 94
2020-09-05 23:00:00 18.5 4 Oeste 17 Nordeste 0.2 -- -- 91
2020-09-05 22:00:00 20 4 Nordeste 18 Nordeste 0 -- -- 79
2020-09-05 21:00:00 20.3 11 Nordeste 21 Nordeste 0 -- -- 77
2020-09-05 20:00:00 20.4 9 Nordeste 21 Nordeste 0 -- -- 75
2020-09-05 19:00:00 20.7 8 Nordeste 22 Nordeste 0 -- -- 78
2020-09-05 18:00:00 21.1 12 Nordeste 22 Nordeste 0 -- -- 78
2020-09-05 17:00:00 21.4 9 Norte 21 Nordeste 0 -- -- 79
2020-09-05 16:00:00 22.7 6 Norte 17 Nordeste 0 -- -- 71
2020-09-05 15:00:00 23 8 Norte 16 Norte 0 -- -- 69
2020-09-05 14:00:00 22.6 7 Nordeste 13 Nordeste 0 -- -- 70
2020-09-05 13:00:00 22.2 6 Norte 18 Norte 0 -- -- 76
2020-09-05 12:00:00 21.8 8 Norte 15 Noroeste 0 -- -- 78
2020-09-05 11:00:00 22.5 8 Nordeste 13 Nordeste 0 -- -- 74
2020-09-05 10:00:00 21.3 3 Oeste 8 Noroeste 0 -- -- 86
2020-09-05 09:00:00 20.1 3 Oeste 5 Oeste 0 -- -- 92
2020-09-05 08:00:00 19.8 0 Calma 8 Oeste 0 -- -- 91
2020-09-05 07:00:00 20.2 4 Oeste 14 Oeste 0 -- -- 91
2020-09-05 06:00:00 20.2 6 Oeste 19 Oeste 0 -- -- 88
2020-09-05 05:00:00 20.1 4 Oeste 9 Oeste 0 -- -- 88
2020-09-05 04:00:00 20.4 4 Sudoeste 12 Sudoeste 0 -- -- 85
2020-09-05 03:00:00 20.6 5 Sudoeste 13 Sur 0 -- -- 85
2020-09-05 02:00:00 21 6 Sudoeste 16 Oeste 0 -- -- 86
2020-09-05 01:00:00 20.5 4 Sudoeste 12 Noroeste 0 -- -- 94
2020-09-05 00:00:00 18.9 2 Sudeste 6 Noroeste 0 -- -- 96
2020-09-04 23:00:00 19.5 3 Noroeste 5 Noroeste 0 -- -- 95
2020-09-04 22:00:00 20.6 5 Noroeste 8 Noroeste 0 -- -- 93
2020-09-04 21:00:00 22.1 2 Noroeste 6 Noroeste 0 -- -- 86
2020-09-04 20:00:00 24.3 3 Norte 8 Nordeste 0 -- -- 78
2020-09-04 19:00:00 25.4 5 Nordeste 12 Norte 0 -- -- 75
2020-09-04 18:00:00 25.9 6 Norte 11 Nordeste 0 -- -- 70
2020-09-04 17:00:00 26 6 Nordeste 14 Norte 0 -- -- 71
2020-09-04 16:00:00 26.3 8 Nordeste 17 Norte 0 -- -- 67
2020-09-04 15:00:00 25.6 9 Nordeste 16 Nordeste 0 -- -- 70
2020-09-04 14:00:00 25.3 8 Nordeste 15 Nordeste 0 -- -- 64
2020-09-04 13:00:00 24.7 7 Nordeste 12 Nordeste 0 -- -- 60
2020-09-04 12:00:00 23.8 5 Nordeste 10 Nordeste 0 -- -- 65
2020-09-04 11:00:00 21.2 4 Sudeste 8 Sudeste 0 -- -- 72
2020-09-04 10:00:00 17.5 4 Sur 10 Sudeste 0 -- -- 86
2020-09-04 09:00:00 14.4 5 Sur 12 Sur 0 -- -- 98
2020-09-04 08:00:00 13.5 7 Sudeste 16 Sur 0 -- -- 98
2020-09-04 07:00:00 13.4 8 Sur 13 Sudeste 0 -- -- 99
2020-09-04 06:00:00 13.7 5 Sur 11 Sur 0 -- -- 98
2020-09-04 05:00:00 14.2 5 Sur 11 Sur 0 -- -- 99
2020-09-04 04:00:00 14.4 3 Sur 8 Sur 0 -- -- 97
2020-09-04 03:00:00 15 5 Sur 14 Sur 0 -- -- 97
2020-09-04 02:00:00 15.6 6 Sur 13 Sur 0 -- -- 95
2020-09-04 01:00:00 16.5 6 Sur 13 Sudeste 0 -- -- 93
2020-09-04 00:00:00 17 4 Sur 9 Sur 0 -- -- 93
2020-09-03 23:00:00 17.5 5 Sudeste 11 Sur 0 -- -- 93
2020-09-03 22:00:00 18.3 0 Calma 6 Noroeste 0 -- -- 91
2020-09-03 21:00:00 20.6 3 Noroeste 12 Norte 0 -- -- 84
2020-09-03 20:00:00 22.2 4 Norte 15 Norte 0 -- -- 78
2020-09-03 19:00:00 23.3 10 Nordeste 18 Nordeste 0 -- -- 71
2020-09-03 18:00:00 23.8 9 Nordeste 17 Nordeste 0 -- -- 69
2020-09-03 17:00:00 24 10 Nordeste 22 Nordeste 0 -- -- 66
2020-09-03 16:00:00 23.8 13 Nordeste 27 Nordeste 0 -- -- 65
2020-09-03 15:00:00 23.7 15 Nordeste 26 Nordeste 0 -- -- 65
2020-09-03 14:00:00 23.8 13 Nordeste 29 Nordeste 0 -- -- 63
2020-09-03 13:00:00 22.9 18 Nordeste 28 Nordeste 0 -- -- 63
2020-09-03 12:00:00 22.9 3 Noroeste 9 Sudeste 0 -- -- 59
2020-09-03 11:00:00 19.2 8 Sudeste 18 Sudeste 0 -- -- 69
2020-09-03 10:00:00 16 10 Sudeste 22 Sudeste 0 -- -- 79
2020-09-03 09:00:00 13 10 Sudeste 21 Sudeste 0 -- -- 88
2020-09-03 08:00:00 11.7 10 Sudeste 20 Sudeste 0 -- -- 93
2020-09-03 07:00:00 11.4 8 Sur 17 Sur 0 -- -- 93
2020-09-03 06:00:00 12.3 8 Sudeste 20 Sudeste 0 -- -- 92
2020-09-03 05:00:00 12.7 8 Sudeste 15 Sudeste 0 -- -- 92
2020-09-03 04:00:00 12.6 6 Sudeste 15 Sudeste 0 -- -- 91
2020-09-03 03:00:00 13.2 5 Sudeste 14 Sur 0 -- -- 90
2020-09-03 02:00:00 13.6 8 Sur 17 Sudeste 0 -- -- 90
2020-09-03 01:00:00 14.1 5 Sur 11 Sudeste 0 -- -- 88
2020-09-03 00:00:00 15.1 4 Sur 13 Sudeste 0 -- -- 85
2020-09-02 23:00:00 16.2 3 Sudeste 6 Sudeste 0 -- -- 80
2020-09-02 22:00:00 17.1 3 Sudeste 6 Sur 0 -- -- 74
2020-09-02 21:00:00 19.9 3 Sur 18 Este 0 -- -- 65
2020-09-02 20:00:00 21.9 12 Nordeste 26 Nordeste 0 -- -- 57
2020-09-02 19:00:00 22.7 17 Nordeste 27 Nordeste 0 -- -- 56
2020-09-02 18:00:00 23.1 16 Nordeste 28 Nordeste 0 -- -- 57
2020-09-02 17:00:00 23 17 Nordeste 29 Nordeste 0 -- -- 65
2020-09-02 16:00:00 22.8 18 Nordeste 30 Nordeste 0 -- -- 69
2020-09-02 15:00:00 22.8 18 Nordeste 26 Nordeste 0 -- -- 68
2020-09-02 14:00:00 23.1 11 Nordeste 21 Nordeste 0 -- -- 68
2020-09-02 13:00:00 23.3 9 Nordeste 14 Nordeste 0 -- -- 63
2020-09-02 12:00:00 22.8 4 Nordeste 9 Nordeste 0 -- -- 65
2020-09-02 11:00:00 20.7 6 Sudeste 15 Sudeste 0 -- -- 77
2020-09-02 10:00:00 18.6 10 Sudeste 18 Sudeste 0 -- -- 86
2020-09-02 09:00:00 16.8 10 Sudeste 17 Sudeste 0 -- -- 94
2020-09-02 08:00:00 15.7 9 Sudeste 19 Sudeste 0 -- -- 96
2020-09-02 07:00:00 15.5 9 Sudeste 20 Sudeste 0 -- -- 95
2020-09-02 06:00:00 15.6 5 Sur 14 Sudeste 0 -- -- 95
2020-09-02 05:00:00 15.4 7 Sur 14 Sur 0 -- -- 96
2020-09-02 04:00:00 14.9 7 Sur 12 Sudeste 0 -- -- 97
2020-09-02 03:00:00 14.9 7 Sur 12 Sur 0 -- -- 96
2020-09-02 02:00:00 14.9 6 Sur 11 Sudeste 0 -- -- 96
2020-09-02 01:00:00 15.3 6 Sudeste 12 Sur 0 -- -- 95
2020-09-02 00:00:00 16 4 Sudeste 8 Sudeste 0 -- -- 93
2020-09-01 23:00:00 16.7 4 Sudeste 6 Sudeste 0 -- -- 92
2020-09-01 22:00:00 18.2 3 Oeste 5 Oeste 0 -- -- 85
2020-09-01 21:00:00 19.8 3 Oeste 11 Noroeste 0 -- -- 78
2020-09-01 20:00:00 21.4 6 Norte 15 Norte 0 -- -- 71
2020-09-01 19:00:00 21.9 8 Norte 18 Norte 0 -- -- 69
2020-09-01 18:00:00 22.4 8 Norte 22 Norte 0 -- -- 70
2020-09-01 17:00:00 23.2 12 Norte 20 Norte 0 -- -- 69
2020-09-01 16:00:00 23 12 Norte 21 Norte 0 -- -- 70
2020-09-01 15:00:00 23.4 9 Nordeste 18 Nordeste 0 -- -- 61
2020-09-01 14:00:00 23.1 9 Nordeste 18 Nordeste 0 -- -- 64
2020-09-01 13:00:00 22.5 6 Nordeste 13 Nordeste 0 -- -- 63
2020-09-01 12:00:00 21.3 3 Nordeste 8 Sudeste 0 -- -- 66
2020-09-01 11:00:00 19.4 6 Sudeste 13 Sudeste 0 -- -- 68
2020-09-01 10:00:00 16.5 9 Sudeste 14 Sudeste 0 -- -- 79
2020-09-01 09:00:00 13.2 6 Sur 13 Sudeste 0 -- -- 92
2020-09-01 08:00:00 12.5 5 Sur 12 Sur 0 -- -- 94
2020-09-01 07:00:00 12.6 6 Sur 11 Sur 0 -- -- 95
2020-09-01 06:00:00 13 4 Sur 10 Sur 0 -- -- 94
2020-09-01 05:00:00 13.9 4 Sudeste 13 Sudeste 0 -- -- 89
2020-09-01 04:00:00 14.1 6 Sur 16 Sudeste 0 -- -- 91
2020-09-01 03:00:00 14.7 9 Sur 15 Sur 0 -- -- 89
2020-09-01 02:00:00 15.1 6 Sur 15 Sudeste 0 -- -- 89
2020-09-01 01:00:00 15.2 7 Sur 11 Sudeste 0 -- -- 92
2020-09-01 00:00:00 15.9 6 Sur 11 Sudeste 0 -- -- 91
2020-08-31 23:00:00 16.6 4 Sur 12 Sur 0 -- -- 91
2020-08-31 22:00:00 17 0 Calma 5 Noroeste 0 -- -- 88
2020-08-31 21:00:00 18.8 3 Norte 5 Nordeste 0 -- -- 80
2020-08-31 20:00:00 20.3 4 Este 17 Nordeste 0 -- -- 73
2020-08-31 19:00:00 21 13 Nordeste 22 Nordeste 0 -- -- 67
2020-08-31 18:00:00 21.1 17 Nordeste 27 Nordeste 0 -- -- 67
2020-08-31 17:00:00 21.5 17 Nordeste 31 Nordeste 0 -- -- 67
2020-08-31 16:00:00 21.8 20 Nordeste 32 Nordeste 0 -- -- 63
2020-08-31 15:00:00 21.7 19 Nordeste 28 Nordeste 0 -- -- 62
2020-08-31 14:00:00 22.2 13 Nordeste 23 Norte 0 -- -- 59
2020-08-31 13:00:00 21.6 11 Nordeste 21 Nordeste 0 -- -- 58
2020-08-31 12:00:00 20.8 4 Nordeste 9 Este 0 -- -- 61
2020-08-31 11:00:00 17.5 4 Sur 13 Sudeste 0 -- -- 77
2020-08-31 10:00:00 14.3 9 Sur 18 Sudeste 0 -- -- 86
2020-08-31 09:00:00 11.5 8 Sudeste 21 Sudeste 0 -- -- 96
2020-08-31 08:00:00 10.1 10 Sur 21 Sudeste 0 -- -- 97
2020-08-31 07:00:00 10.3 12 Sudeste 24 Sudeste 0 -- -- 96
2020-08-31 06:00:00 10.5 9 Sudeste 22 Sudeste 0 -- -- 96
2020-08-31 05:00:00 10.8 11 Sur 23 Sur 0 -- -- 96
2020-08-31 04:00:00 11.1 8 Sur 19 Sudeste 0 -- -- 95
2020-08-31 03:00:00 11.6 8 Sudeste 22 Sudeste 0 -- -- 95
2020-08-31 02:00:00 11.9 10 Sudeste 18 Sudeste 0 -- -- 95
2020-08-31 01:00:00 12.5 9 Sur 16 Sur 0 -- -- 95
2020-08-31 00:00:00 13 9 Sur 18 Sudeste 0 -- -- 94
2020-08-30 23:00:00 13.5 6 Sur 12 Sur 0 -- -- 95
2020-08-30 22:00:00 14 6 Sur 11 Sudeste 0 -- -- 92
2020-08-30 21:00:00 16.1 0 Calma 12 Oeste 0 -- -- 82
2020-08-30 20:00:00 17.4 7 Sudoeste 18 Oeste 0 -- -- 75
2020-08-30 19:00:00 18.4 5 Este 12 Sur 0 -- -- 79
2020-08-30 18:00:00 17.1 8 Sudeste 17 Sur 0 -- -- 83
2020-08-30 17:00:00 16.3 6 Sur 12 Sudeste 0.6 -- -- 86
2020-08-30 16:00:00 15.8 7 Noroeste 21 Sudeste 0.4 -- -- 88
2020-08-30 15:00:00 15.9 10 Sudeste 21 Oeste 1 -- -- 91
2020-08-30 14:00:00 15 16 Oeste 31 Noroeste 9.2 -- -- 87
2020-08-30 13:00:00 17 8 Sur 26 Noroeste 0.4 -- -- 84
2020-08-30 12:00:00 16.3 8 Norte 24 Oeste 0.8 -- -- 84
2020-08-30 11:00:00 16.6 14 Noroeste 30 Oeste 0.2 -- -- 78
2020-08-30 10:00:00 15.9 13 Sudoeste 30 Sudoeste 0 -- -- 81
2020-08-30 09:00:00 14.9 13 Oeste 29 Oeste 0 -- -- 83
2020-08-30 08:00:00 14.4 6 Sudoeste 16 Sudoeste 0 -- -- 83
2020-08-30 07:00:00 14.2 7 Sudoeste 19 Sudoeste 0 -- -- 87
2020-08-30 06:00:00 14.2 7 Sudoeste 22 Oeste 0.4 -- -- 89
2020-08-30 05:00:00 14.7 10 Sudoeste 22 Sudoeste 0 -- -- 88
2020-08-30 04:00:00 14.5 6 Sudoeste 20 Oeste 0.2 -- -- 89
2020-08-30 03:00:00 14.9 8 Sudoeste 20 Sudoeste 0 -- -- 87
2020-08-30 02:00:00 14.6 6 Sudoeste 19 Sudoeste 0 -- -- 91
2020-08-30 01:00:00 14.6 7 Sudeste 11 Sudeste 0 -- -- 91
2020-08-30 00:00:00 14.7 2 Sur 14 Oeste 0 -- -- 91
2020-08-29 23:00:00 14.6 6 Sudoeste 29 Oeste 5.4 -- -- 91
2020-08-29 22:00:00 14.5 7 Oeste 29 Sudoeste 1.8 -- -- 91
2020-08-29 21:00:00 16.5 5 Oeste 23 Noroeste 0 -- -- 72
2020-08-29 20:00:00 17.5 14 Noroeste 34 Noroeste 0 -- -- 72
2020-08-29 19:00:00 16.9 6 Oeste 36 Noroeste 1 -- -- 92
2020-08-29 18:00:00 17.5 13 Noroeste 31 Noroeste 2.6 -- -- 87
2020-08-29 17:00:00 17.3 5 Oeste 27 Norte 0.6 -- -- 87
2020-08-29 16:00:00 19.9 16 Noroeste 28 Noroeste 0 -- -- 75
2020-08-29 15:00:00 18.8 9 Oeste 19 Sudoeste 2.4 -- -- 87
2020-08-29 14:00:00 16.9 8 Nordeste 18 Sudoeste 8 -- -- 91
2020-08-29 13:00:00 16.7 8 Oeste 30 Oeste 1 -- -- 88
2020-08-29 12:00:00 16 9 Sudoeste 27 Sudoeste 0 -- -- 88
2020-08-29 11:00:00 16.5 16 Sudoeste 34 Sudoeste 0 -- -- 85
2020-08-29 10:00:00 15.6 13 Oeste 32 Oeste 0.4 -- -- 88
2020-08-29 09:00:00 15 13 Oeste 27 Oeste 1 -- -- 90
2020-08-29 08:00:00 14.8 10 Sudoeste 22 Oeste 1.2 -- -- 90
2020-08-29 07:00:00 14.8 6 Sudoeste 16 Sudoeste 3.2 -- -- 93
2020-08-29 06:00:00 14.6 6 Sudoeste 28 Oeste 4.6 -- -- 92
2020-08-29 05:00:00 14.6 4 Sur 10 Sur 2.4 -- -- 95
2020-08-29 04:00:00 15.4 3 Noroeste 22 Sudoeste 1 -- -- 88
2020-08-29 03:00:00 15.5 6 Sudoeste 23 Sudoeste 0 -- -- 85
2020-08-29 02:00:00 15.9 8 Sudoeste 26 Oeste 0 -- -- 83
2020-08-29 01:00:00 16.3 7 Sudoeste 26 Oeste 0 -- -- 84
2020-08-29 00:00:00 16.8 10 Sudoeste 20 Sudoeste 0.4 -- -- 85
2020-08-28 23:00:00 17 6 Sudoeste 18 Sur 0.4 -- -- 83
2020-08-28 22:00:00 18.2 7 Oeste 22 Oeste 0 -- -- 72
2020-08-28 21:00:00 18.7 8 Oeste 27 Oeste 0 -- -- 71
2020-08-28 20:00:00 19 12 Oeste 23 Oeste 0 -- -- 74
2020-08-28 19:00:00 19.6 9 Oeste 21 Oeste 0 -- -- 72
2020-08-28 18:00:00 18.8 6 Sudoeste 29 Oeste 0.2 -- -- 82
2020-08-28 17:00:00 20.2 12 Oeste 31 Oeste 0 -- -- 74
2020-08-28 16:00:00 20 13 Oeste 32 Oeste 0 -- -- 76
2020-08-28 15:00:00 19.2 13 Oeste 26 Oeste 0 -- -- 79
2020-08-28 14:00:00 17.9 11 Oeste 27 Oeste 0 -- -- 87
2020-08-28 13:00:00 18 8 Oeste 17 Oeste 0.4 -- -- 92
2020-08-28 12:00:00 18.3 10 Sudoeste 24 Oeste 0 -- -- 90
2020-08-28 11:00:00 17.8 8 Sudoeste 26 Sudoeste 0.2 -- -- 93
2020-08-28 10:00:00 17.7 4 Sur 12 Sur 0.2 -- -- 94
2020-08-28 09:00:00 17.4 6 Sudoeste 14 Sudoeste 0 -- -- 94
2020-08-28 08:00:00 17.4 3 Sudoeste 15 Sudoeste 0 -- -- 94
2020-08-28 07:00:00 17.8 6 Oeste 24 Oeste 0 -- -- 93
2020-08-28 06:00:00 18.2 12 Oeste 35 Oeste 0.8 -- -- 95
2020-08-28 05:00:00 19.2 9 Oeste 22 Oeste 0 -- -- 94
2020-08-28 04:00:00 19.8 15 Oeste 26 Oeste 2.2 -- -- 95
2020-08-28 03:00:00 21 3 Sudoeste 9 Noroeste 0 -- -- 93
2020-08-28 02:00:00 21.2 3 Sur 10 Sur 0 -- -- 93
2020-08-28 01:00:00 21.1 3 Sudeste 8 Sur 0 -- -- 96
2020-08-28 00:00:00 21.3 0 Calma 8 Sur 0 -- -- 96
2020-08-27 23:00:00 21.6 0 Calma 6 Sur 0.8 -- -- 94
2020-08-27 22:00:00 22.6 3 Este 5 Este 0.8 -- -- 85
2020-08-27 21:00:00 22.9 4 Noroeste 16 Noroeste 0 -- -- 82
2020-08-27 20:00:00 23.3 9 Noroeste 21 Noroeste 0 -- -- 81
2020-08-27 19:00:00 24 7 Noroeste 15 Noroeste 0 -- -- 79
2020-08-27 18:00:00 24.1 12 Noroeste 23 Oeste 0 -- -- 78
2020-08-27 17:00:00 25.1 11 Oeste 26 Oeste 0 -- -- 76
2020-08-27 16:00:00 25.9 18 Noroeste 31 Noroeste 0 -- -- 74
2020-08-27 15:00:00 26.2 21 Noroeste 36 Noroeste 0 -- -- 71
2020-08-27 14:00:00 26.9 18 Noroeste 37 Noroeste 0 -- -- 71
2020-08-27 13:00:00 27.1 17 Noroeste 28 Noroeste 0 -- -- 69
2020-08-27 12:00:00 26.3 10 Nordeste 18 Nordeste 0 -- -- 71
2020-08-27 11:00:00 25.1 4 Nordeste 15 Sudeste 0 -- -- 74
2020-08-27 10:00:00 21.8 8 Sudeste 19 Sudeste 0 -- -- 89
2020-08-27 09:00:00 19.1 4 Sur 6 Sudeste 0 -- -- 98
2020-08-27 08:00:00 18 4 Sur 13 Este 0 -- -- 98
2020-08-27 07:00:00 18.2 6 Sudeste 13 Sur 0 -- -- 98
2020-08-27 06:00:00 18 4 Sur 9 Sur 0 -- -- 99
2020-08-27 05:00:00 17.6 3 Sudeste 6 Sudeste 0 -- -- 98
2020-08-27 04:00:00 18.4 2 Sudoeste 6 Sudeste 0 -- -- 98
2020-08-27 03:00:00 18.4 0 Calma 5 Sur 0 -- -- 97
2020-08-27 02:00:00 19.1 0 Calma 0 Calma 0 -- -- 97
2020-08-27 01:00:00 19.6 0 Calma 3 Sur 0 -- -- 95
2020-08-27 00:00:00 21.1 3 Sur 6 Sur 0 -- -- 92
2020-08-26 23:00:00 22 3 Sur 8 Sudeste 0 -- -- 88
2020-08-26 22:00:00 22.2 0 Calma 15 Nordeste 0 -- -- 89
2020-08-26 21:00:00 22.9 10 Nordeste 20 Nordeste 0 -- -- 86
2020-08-26 20:00:00 23.2 11 Nordeste 21 Nordeste 0 -- -- 86
2020-08-26 19:00:00 23.7 12 Nordeste 23 Nordeste 0 -- -- 83
2020-08-26 18:00:00 24.7 12 Nordeste 26 Nordeste 0 -- -- 80
2020-08-26 17:00:00 24.8 19 Nordeste 29 Nordeste 0 -- -- 80
2020-08-26 16:00:00 25.2 15 Nordeste 31 Nordeste 0 -- -- 79
2020-08-26 15:00:00 25.3 15 Nordeste 25 Nordeste 0 -- -- 77
2020-08-26 14:00:00 24.9 12 Nordeste 26 Nordeste 0 -- -- 81
2020-08-26 13:00:00 25.2 12 Nordeste 20 Nordeste 0 -- -- 77
2020-08-26 12:00:00 24.6 8 Nordeste 15 Nordeste 0 -- -- 79
2020-08-26 11:00:00 22.5 5 Sudeste 10 Sudeste 0 -- -- 82
2020-08-26 10:00:00 20.9 4 Sur 10 Sudeste 0 -- -- 92
2020-08-26 09:00:00 19.8 4 Sudeste 9 Sur 0 -- -- 96
2020-08-26 08:00:00 19.3 4 Sur 7 Sur 0 -- -- 97
2020-08-26 07:00:00 18.6 3 Sudeste 5 Sudeste 0 -- -- 96
2020-08-26 06:00:00 19.1 0 Calma 5 Noroeste 0 -- -- 94
2020-08-26 05:00:00 20.4 0 Calma 6 Sur 0 -- -- 89
2020-08-26 04:00:00 21.4 3 Sur 9 Sudeste 0 -- -- 84
2020-08-26 03:00:00 21.5 6 Sur 8 Sudeste 0 -- -- 83
2020-08-26 02:00:00 21.7 4 Sur 9 Sudeste 0 -- -- 82
2020-08-26 01:00:00 21.9 5 Sudeste 11 Sudeste 0 -- -- 80
2020-08-26 00:00:00 22 5 Sudeste 9 Sur 0 -- -- 79